Time;durP1;ratioP1;P1;durP2;ratioP2;P2;SDS_P1;SDS_P2;PMS_P1;PMS_P2;Temp;Humidity;BMP_temperature;BMP_pressure;BME280_temperature;BME280_humidity;BME280_pressure;Samples;Min_cycle;Max_cycle;Signal;HPM_P1;HPM_P2
2023/12/17 00:00:47;;;;;;;12.63;6.70;;;;;;;;;;5037096;28;20088;-67
2023/12/17 00:03:13;;;;;;;9.50;6.20;;;;;;;;;;5036628;28;20056;-66
2023/12/17 00:05:38;;;;;;;13.60;7.25;;;;;;;;;;5036459;28;20045;-65
2023/12/17 00:08:03;;;;;;;10.15;6.65;;;;;;;;;;5036605;28;20082;-66
2023/12/17 00:10:29;;;;;;;11.23;6.47;;;;;;;;;;5036457;28;20041;-65
2023/12/17 00:12:54;;;;;;;11.93;7.07;;;;;;;;;;5037696;28;20043;-65
2023/12/17 00:15:20;;;;;;;13.30;8.02;;;;;;;;;;5039520;28;20059;-66
2023/12/17 00:17:45;;;;;;;12.20;7.07;;;;;;;;;;5041066;28;20048;-65
2023/12/17 00:20:11;;;;;;;14.13;6.95;;;;;;;;;;5039131;28;20041;-65
2023/12/17 00:22:36;;;;;;;10.50;7.05;;;;;;;;;;5039853;28;20033;-65
2023/12/17 00:25:02;;;;;;;13.25;6.95;;;;;;;;;;5040172;28;20037;-65
2023/12/17 00:27:28;;;;;;;13.85;7.00;;;;;;;;;;5039924;28;20068;-66
2023/12/17 00:29:53;;;;;;;11.55;6.63;;;;;;;;;;5040516;28;20519;-65
2023/12/17 00:32:18;;;;;;;33.30;13.75;;;;;;;;;;5039316;28;20049;-66
2023/12/17 00:34:44;;;;;;;121.40;40.47;;;;;;;;;;5040630;28;20219;-65
2023/12/17 00:37:09;;;;;;;35.10;16.17;;;;;;;;;;5040453;28;20045;-65
2023/12/17 00:39:34;;;;;;;16.80;9.43;;;;;;;;;;5040021;28;20047;-66
2023/12/17 00:42:00;;;;;;;17.85;9.90;;;;;;;;;;5039798;28;20183;-66
2023/12/17 00:44:25;;;;;;;17.02;9.75;;;;;;;;;;5040045;28;20160;-66
2023/12/17 00:46:51;;;;;;;14.60;7.95;;;;;;;;;;5040752;28;20045;-66
2023/12/17 00:49:16;;;;;;;12.15;7.72;;;;;;;;;;5039660;28;20052;-66
2023/12/17 00:51:41;;;;;;;10.05;7.20;;;;;;;;;;5039984;28;20041;-66
2023/12/17 00:54:07;;;;;;;10.25;6.38;;;;;;;;;;5038388;28;20504;-66
2023/12/17 00:56:32;;;;;;;10.65;6.90;;;;;;;;;;5039817;28;20108;-66
2023/12/17 00:58:57;;;;;;;132.45;39.28;;;;;;;;;;5040243;28;20098;-67
2023/12/17 01:01:23;;;;;;;90.00;32.28;;;;;;;;;;5038387;28;20040;-66
2023/12/17 01:03:48;;;;;;;15.27;7.90;;;;;;;;;;5039102;28;20083;-67
2023/12/17 01:06:14;;;;;;;20.98;10.30;;;;;;;;;;5039351;28;20048;-66
2023/12/17 01:08:40;;;;;;;10.43;6.60;;;;;;;;;;5038518;28;20044;-66
2023/12/17 01:11:05;;;;;;;17.77;6.18;;;;;;;;;;5037895;28;20484;-66
2023/12/17 01:13:31;;;;;;;11.20;6.38;;;;;;;;;;5039306;28;20032;-66
2023/12/17 01:15:56;;;;;;;7.90;5.45;;;;;;;;;;5037844;28;20044;-67
2023/12/17 01:18:22;;;;;;;9.38;6.20;;;;;;;;;;5037951;28;20045;-67
2023/12/17 01:20:47;;;;;;;17.50;6.88;;;;;;;;;;5037046;28;21187;-67
2023/12/17 01:23:12;;;;;;;9.95;6.35;;;;;;;;;;5037177;28;20045;-66
2023/12/17 01:25:38;;;;;;;9.15;6.18;;;;;;;;;;5036371;28;20908;-66
2023/12/17 01:28:03;;;;;;;11.10;6.75;;;;;;;;;;5037674;28;20430;-66
2023/12/17 01:30:28;;;;;;;7.88;5.53;;;;;;;;;;5039084;28;20041;-64
2023/12/17 01:32:54;;;;;;;8.55;6.25;;;;;;;;;;5039507;28;20072;-64
2023/12/17 01:35:19;;;;;;;9.88;7.55;;;;;;;;;;5038905;28;20055;-66
2023/12/17 01:37:44;;;;;;;14.07;8.15;;;;;;;;;;5021145;28;20084;-65
2023/12/17 01:40:10;;;;;;;11.98;7.18;;;;;;;;;;5044971;28;20051;-65
2023/12/17 01:42:36;;;;;;;10.32;8.05;;;;;;;;;;5059160;28;20756;-65
2023/12/17 01:45:01;;;;;;;15.45;8.25;;;;;;;;;;5058931;28;20507;-65
2023/12/17 01:47:27;;;;;;;11.63;7.72;;;;;;;;;;5053921;28;20127;-66
2023/12/17 01:49:52;;;;;;;13.98;7.15;;;;;;;;;;5058057;28;20559;-65
2023/12/17 01:52:18;;;;;;;11.65;6.75;;;;;;;;;;5058670;28;20098;-65
2023/12/17 01:54:44;;;;;;;9.63;6.57;;;;;;;;;;5040317;28;20056;-65
2023/12/17 01:57:10;;;;;;;12.10;7.05;;;;;;;;;;5020764;28;20048;-66
2023/12/17 01:59:35;;;;;;;10.95;6.25;;;;;;;;;;5026591;28;20041;-66
2023/12/17 02:02:02;;;;;;;8.75;5.95;;;;;;;;;;5037062;28;20041;-65
2023/12/17 02:04:28;;;;;;;12.13;7.25;;;;;;;;;;5034030;28;20101;-66
2023/12/17 02:06:53;;;;;;;8.55;6.55;;;;;;;;;;5020791;28;20156;-68
2023/12/17 02:09:19;;;;;;;8.23;6.03;;;;;;;;;;5019439;28;20056;-67
2023/12/17 02:11:44;;;;;;;9.43;5.25;;;;;;;;;;5019132;28;20065;-67
2023/12/17 02:14:10;;;;;;;9.40;5.90;;;;;;;;;;5018677;28;20045;-67
2023/12/17 02:16:35;;;;;;;6.85;5.68;;;;;;;;;;5019682;28;20083;-66
2023/12/17 02:19:01;;;;;;;9.00;6.15;;;;;;;;;;5019274;28;20132;-66
2023/12/17 02:21:26;;;;;;;16.52;6.28;;;;;;;;;;5019264;28;20043;-66
2023/12/17 02:23:53;;;;;;;9.65;6.03;;;;;;;;;;5019051;28;20045;-66
2023/12/17 02:26:18;;;;;;;7.55;5.30;;;;;;;;;;5018915;28;20047;-66
2023/12/17 02:28:47;;;;;;;5.97;4.57;;;;;;;;;;5019364;28;20041;-67
2023/12/17 02:31:12;;;;;;;11.73;6.55;;;;;;;;;;5020893;28;20078;-66
2023/12/17 02:33:38;;;;;;;7.30;5.72;;;;;;;;;;5023253;28;20373;-66
2023/12/17 02:36:04;;;;;;;9.18;5.70;;;;;;;;;;5019914;28;20045;-67
2023/12/17 02:38:29;;;;;;;9.02;5.97;;;;;;;;;;5018671;28;20093;-66
2023/12/17 02:40:54;;;;;;;7.70;5.25;;;;;;;;;;5023023;28;20150;-66
2023/12/17 02:43:20;;;;;;;4.97;4.07;;;;;;;;;;5018812;28;20037;-66
2023/12/17 02:45:45;;;;;;;4.78;4.20;;;;;;;;;;5022900;28;20603;-66
2023/12/17 02:48:10;;;;;;;5.40;4.35;;;;;;;;;;5018584;28;20049;-66
2023/12/17 02:50:36;;;;;;;7.18;4.35;;;;;;;;;;5019200;28;20037;-66
2023/12/17 02:53:01;;;;;;;4.05;3.65;;;;;;;;;;5019159;28;20670;-66
2023/12/17 02:55:26;;;;;;;3.63;3.28;;;;;;;;;;5017743;28;20047;-65
2023/12/17 02:57:52;;;;;;;4.35;3.88;;;;;;;;;;5018763;28;20077;-66
2023/12/17 03:00:17;;;;;;;7.85;4.15;;;;;;;;;;5017140;28;20057;-66
2023/12/17 03:02:42;;;;;;;4.95;4.13;;;;;;;;;;5023160;28;20041;-66
2023/12/17 03:05:08;;;;;;;5.15;4.05;;;;;;;;;;5018179;28;20126;-66
2023/12/17 03:07:33;;;;;;;5.07;3.45;;;;;;;;;;5017906;28;20081;-66
2023/12/17 03:09:59;;;;;;;5.47;4.18;;;;;;;;;;5018526;28;20092;-66
2023/12/17 03:12:24;;;;;;;5.35;4.13;;;;;;;;;;5018182;28;20124;-66
2023/12/17 03:14:49;;;;;;;5.18;3.40;;;;;;;;;;5021476;28;20033;-65
2023/12/17 03:17:15;;;;;;;4.20;3.75;;;;;;;;;;5031694;28;20407;-66
2023/12/17 03:19:40;;;;;;;5.25;3.95;;;;;;;;;;5037255;28;20053;-66
2023/12/17 03:22:05;;;;;;;4.13;3.20;;;;;;;;;;5037705;28;20124;-66
2023/12/17 03:24:31;;;;;;;3.95;3.55;;;;;;;;;;5046660;28;20044;-66
2023/12/17 03:26:56;;;;;;;5.45;3.97;;;;;;;;;;5039546;28;20533;-67
2023/12/17 03:29:21;;;;;;;3.83;3.10;;;;;;;;;;5056018;28;20086;-66
2023/12/17 03:31:47;;;;;;;3.30;2.90;;;;;;;;;;5057524;28;20044;-66
2023/12/17 03:34:12;;;;;;;3.92;3.10;;;;;;;;;;5057525;28;20044;-65
2023/12/17 03:36:38;;;;;;;4.72;3.63;;;;;;;;;;5033015;28;20148;-65
2023/12/17 03:39:04;;;;;;;3.50;2.70;;;;;;;;;;5018767;28;20435;-65
2023/12/17 03:41:29;;;;;;;4.95;3.97;;;;;;;;;;5017817;28;20047;-65
2023/12/17 03:43:56;;;;;;;4.70;3.80;;;;;;;;;;5018705;28;20068;-65
2023/12/17 03:46:23;;;;;;;5.57;3.95;;;;;;;;;;5018315;28;20045;-65
2023/12/17 03:48:49;;;;;;;4.90;3.85;;;;;;;;;;5024227;28;20049;-65
2023/12/17 03:51:15;;;;;;;4.93;3.78;;;;;;;;;;5023940;28;20492;-65
2023/12/17 03:53:40;;;;;;;5.30;3.65;;;;;;;;;;5026194;28;20068;-65
2023/12/17 03:56:11;;;;;;;4.35;3.25;;;;;;;;;;5023411;28;20053;-65
2023/12/17 03:58:37;;;;;;;3.78;2.95;;;;;;;;;;5021684;28;20037;-65
2023/12/17 04:01:03;;;;;;;6.07;4.30;;;;;;;;;;5023510;28;20056;-65
2023/12/17 04:03:29;;;;;;;5.80;3.78;;;;;;;;;;5022145;28;20060;-65
2023/12/17 04:05:58;;;;;;;6.10;3.85;;;;;;;;;;5025927;28;20064;-65
2023/12/17 04:08:24;;;;;;;3.97;3.50;;;;;;;;;;5023496;28;20504;-64
2023/12/17 04:10:49;;;;;;;3.60;2.97;;;;;;;;;;5025732;28;20052;-65
2023/12/17 04:13:14;;;;;;;4.60;3.35;;;;;;;;;;5029468;28;20605;-64
2023/12/17 04:15:40;;;;;;;3.75;3.38;;;;;;;;;;5040652;28;20037;-65
2023/12/17 04:18:05;;;;;;;4.13;3.10;;;;;;;;;;5029167;28;20199;-65
2023/12/17 04:20:30;;;;;;;4.47;3.15;;;;;;;;;;5028548;28;20053;-65
2023/12/17 04:22:56;;;;;;;3.60;3.10;;;;;;;;;;5029307;28;20124;-64
2023/12/17 04:25:22;;;;;;;3.28;2.38;;;;;;;;;;5022774;28;20049;-67
2023/12/17 04:27:47;;;;;;;3.78;2.72;;;;;;;;;;5021646;28;20156;-65
2023/12/17 04:30:13;;;;;;;3.78;2.90;;;;;;;;;;5021824;28;20041;-65
2023/12/17 04:32:38;;;;;;;1.73;1.63;;;;;;;;;;5022480;28;20540;-65
2023/12/17 04:35:04;;;;;;;2.85;2.50;;;;;;;;;;5021587;28;20049;-65
2023/12/17 04:37:29;;;;;;;3.50;2.75;;;;;;;;;;5021657;28;20049;-65
2023/12/17 04:39:55;;;;;;;2.00;1.80;;;;;;;;;;5036138;28;20052;-65
2023/12/17 04:42:20;;;;;;;1.65;1.55;;;;;;;;;;5021687;28;20055;-65
2023/12/17 04:44:46;;;;;;;2.30;1.88;;;;;;;;;;5026396;28;20041;-65
2023/12/17 04:47:11;;;;;;;1.92;1.70;;;;;;;;;;5022500;28;20115;-65
2023/12/17 04:49:37;;;;;;;2.53;2.00;;;;;;;;;;5020219;28;20053;-65
2023/12/17 04:52:03;;;;;;;4.05;3.10;;;;;;;;;;5021486;28;20591;-65
2023/12/17 04:54:28;;;;;;;3.75;2.95;;;;;;;;;;5020588;28;20584;-65
2023/12/17 04:56:54;;;;;;;4.68;3.70;;;;;;;;;;5021795;28;20046;-65
2023/12/17 04:59:24;;;;;;;2.85;1.77;;;;;;;;;;5020119;28;20045;-65
2023/12/17 05:01:49;;;;;;;4.03;3.13;;;;;;;;;;5039639;28;20045;-66
2023/12/17 05:04:15;;;;;;;7.45;3.78;;;;;;;;;;5038851;28;20457;-65
2023/12/17 05:06:41;;;;;;;4.82;3.20;;;;;;;;;;5039136;28;20047;-65
2023/12/17 05:09:07;;;;;;;5.32;3.83;;;;;;;;;;5039689;28;20053;-67
2023/12/17 05:11:32;;;;;;;6.43;4.15;;;;;;;;;;5037743;28;20037;-65
2023/12/17 05:13:58;;;;;;;4.63;3.35;;;;;;;;;;5038598;28;20232;-66
2023/12/17 05:16:23;;;;;;;4.13;3.33;;;;;;;;;;5037747;28;20036;-65
2023/12/17 05:18:48;;;;;;;10.40;3.55;;;;;;;;;;5037452;28;20400;-66
2023/12/17 05:21:14;;;;;;;5.82;3.60;;;;;;;;;;5037805;28;20191;-65
2023/12/17 05:23:39;;;;;;;5.30;3.75;;;;;;;;;;5037082;28;20067;-65
2023/12/17 05:26:05;;;;;;;7.03;4.00;;;;;;;;;;5039485;28;20114;-65
2023/12/17 05:28:30;;;;;;;3.38;3.08;;;;;;;;;;5037825;28;20780;-65
2023/12/17 05:30:55;;;;;;;4.53;3.60;;;;;;;;;;5038206;28;20131;-65
2023/12/17 05:33:21;;;;;;;5.93;4.13;;;;;;;;;;5037639;28;20530;-65
2023/12/17 05:35:46;;;;;;;4.82;3.95;;;;;;;;;;5038735;28;20072;-65
2023/12/17 05:38:11;;;;;;;6.78;4.28;;;;;;;;;;5038652;28;20526;-65
2023/12/17 05:40:37;;;;;;;5.25;4.13;;;;;;;;;;5037882;28;20057;-65
2023/12/17 05:43:03;;;;;;;6.75;4.05;;;;;;;;;;5038955;28;20052;-65
2023/12/17 05:45:30;;;;;;;6.85;4.47;;;;;;;;;;5037838;28;21365;-66
2023/12/17 05:47:56;;;;;;;6.80;5.05;;;;;;;;;;5038595;28;20135;-65
2023/12/17 05:50:22;;;;;;;6.72;4.47;;;;;;;;;;5036503;28;20647;-65
2023/12/17 05:52:48;;;;;;;7.13;5.03;;;;;;;;;;5037771;28;20045;-65
2023/12/17 05:55:14;;;;;;;5.85;4.30;;;;;;;;;;5038068;28;20048;-66
2023/12/17 05:57:41;;;;;;;10.00;4.75;;;;;;;;;;5037966;28;20044;-66
2023/12/17 06:00:08;;;;;;;4.57;3.88;;;;;;;;;;5038400;28;20040;-66
2023/12/17 06:02:34;;;;;;;4.93;3.67;;;;;;;;;;5035017;28;20059;-66
2023/12/17 06:04:59;;;;;;;4.18;3.78;;;;;;;;;;5037106;28;20056;-65
2023/12/17 06:07:24;;;;;;;6.50;4.68;;;;;;;;;;5034551;28;20072;-67
2023/12/17 06:09:50;;;;;;;9.45;4.65;;;;;;;;;;5034595;28;20037;-66
2023/12/17 06:12:15;;;;;;;5.25;4.13;;;;;;;;;;5032997;28;20488;-65
2023/12/17 06:14:40;;;;;;;6.35;4.25;;;;;;;;;;5035544;28;20055;-65
2023/12/17 06:17:09;;;;;;;11.18;7.30;;;;;;;;;;5034273;28;20090;-65
2023/12/17 06:19:36;;;;;;;10.68;6.20;;;;;;;;;;5031856;28;20103;-65
2023/12/17 06:22:02;;;;;;;10.50;6.32;;;;;;;;;;5033993;28;20130;-65
2023/12/17 06:24:28;;;;;;;12.13;7.57;;;;;;;;;;5031263;28;20413;-65
2023/12/17 06:26:55;;;;;;;13.20;7.20;;;;;;;;;;5034441;28;20507;-66
2023/12/17 06:29:20;;;;;;;20.73;9.82;;;;;;;;;;5034191;28;20514;-65
2023/12/17 06:31:46;;;;;;;16.88;9.25;;;;;;;;;;5033743;28;20045;-65
2023/12/17 06:34:11;;;;;;;12.60;7.60;;;;;;;;;;5034071;28;20045;-67
2023/12/17 06:36:37;;;;;;;11.15;6.38;;;;;;;;;;5033833;28;20525;-65
2023/12/17 06:39:02;;;;;;;13.32;8.10;;;;;;;;;;5035259;28;20041;-66
2023/12/17 06:41:28;;;;;;;11.90;6.43;;;;;;;;;;5035423;28;20056;-69
2023/12/17 06:43:53;;;;;;;10.70;6.72;;;;;;;;;;5036021;28;20090;-68
2023/12/17 06:46:19;;;;;;;10.35;5.68;;;;;;;;;;5035235;28;20044;-67
2023/12/17 06:48:47;;;;;;;7.03;5.13;;;;;;;;;;5035541;28;20065;-65
2023/12/17 06:51:13;;;;;;;5.57;4.90;;;;;;;;;;5035736;28;20059;-65
2023/12/17 06:53:38;;;;;;;7.68;4.93;;;;;;;;;;5034938;28;20045;-65
2023/12/17 06:56:05;;;;;;;6.03;4.80;;;;;;;;;;5034926;28;20065;-66
2023/12/17 06:58:31;;;;;;;5.55;4.20;;;;;;;;;;5033904;28;20063;-65
2023/12/17 07:00:57;;;;;;;7.40;4.90;;;;;;;;;;5036190;28;20506;-65
2023/12/17 07:03:24;;;;;;;5.43;4.22;;;;;;;;;;5035822;28;20056;-66
2023/12/17 07:05:49;;;;;;;6.53;4.30;;;;;;;;;;5033107;28;20045;-66
2023/12/17 07:08:15;;;;;;;4.43;3.92;;;;;;;;;;5034593;28;20060;-66
2023/12/17 07:10:40;;;;;;;7.32;4.68;;;;;;;;;;5035038;28;20529;-66
2023/12/17 07:13:06;;;;;;;6.35;4.85;;;;;;;;;;5037737;28;20418;-65
2023/12/17 07:15:31;;;;;;;6.15;4.78;;;;;;;;;;5035170;28;20041;-68
2023/12/17 07:17:57;;;;;;;10.48;4.38;;;;;;;;;;5037393;28;20118;-65
2023/12/17 07:20:22;;;;;;;4.15;3.78;;;;;;;;;;5035352;28;20056;-65
2023/12/17 07:22:50;;;;;;;8.02;4.22;;;;;;;;;;5033852;28;20048;-66
2023/12/17 07:25:17;;;;;;;4.45;3.95;;;;;;;;;;5035275;28;20045;-65
2023/12/17 07:27:43;;;;;;;6.03;4.45;;;;;;;;;;5034968;28;20048;-66
2023/12/17 07:30:08;;;;;;;5.05;3.95;;;;;;;;;;5036244;28;20049;-66
2023/12/17 07:32:34;;;;;;;6.50;4.43;;;;;;;;;;5036385;28;20045;-66
2023/12/17 07:34:59;;;;;;;4.05;3.65;;;;;;;;;;5037283;28;20934;-66
2023/12/17 07:37:24;;;;;;;6.10;4.47;;;;;;;;;;5036025;28;20531;-66
2023/12/17 07:39:50;;;;;;;4.88;4.10;;;;;;;;;;5036877;28;20036;-67
2023/12/17 07:42:15;;;;;;;6.13;3.83;;;;;;;;;;5036410;28;20570;-66
2023/12/17 07:44:41;;;;;;;5.28;4.45;;;;;;;;;;5036207;28;20456;-67
2023/12/17 07:47:10;;;;;;;6.07;4.72;;;;;;;;;;5036846;28;20457;-67
2023/12/17 07:49:36;;;;;;;5.85;3.95;;;;;;;;;;5036150;28;20055;-67
2023/12/17 07:52:02;;;;;;;3.55;3.15;;;;;;;;;;5036482;28;20503;-66
2023/12/17 07:54:29;;;;;;;4.93;4.18;;;;;;;;;;5036840;28;20098;-67
2023/12/17 07:56:55;;;;;;;4.43;4.03;;;;;;;;;;5036630;28;20047;-67
2023/12/17 07:59:20;;;;;;;4.53;3.65;;;;;;;;;;5035603;28;20041;-67
2023/12/17 08:01:45;;;;;;;4.07;3.53;;;;;;;;;;5035814;28;20415;-67
2023/12/17 08:04:11;;;;;;;4.13;3.20;;;;;;;;;;5036146;28;20049;-67
2023/12/17 08:06:36;;;;;;;4.68;3.00;;;;;;;;;;5036603;28;20225;-67
2023/12/17 08:09:02;;;;;;;3.45;3.00;;;;;;;;;;5036989;28;20388;-67
2023/12/17 08:11:27;;;;;;;4.18;2.47;;;;;;;;;;5036241;28;20037;-67
2023/12/17 08:13:53;;;;;;;5.47;3.13;;;;;;;;;;5035014;28;20044;-68
2023/12/17 08:16:18;;;;;;;4.60;3.30;;;;;;;;;;5035973;28;20049;-68
2023/12/17 08:18:43;;;;;;;5.60;2.67;;;;;;;;;;5036404;28;20055;-66
2023/12/17 08:21:09;;;;;;;5.43;3.33;;;;;;;;;;5036768;28;20060;-67
2023/12/17 08:23:35;;;;;;;11.02;3.20;;;;;;;;;;5034920;28;20043;-67
2023/12/17 08:26:00;;;;;;;4.43;2.40;;;;;;;;;;5035718;28;20067;-67
2023/12/17 08:28:26;;;;;;;3.45;2.80;;;;;;;;;;5036726;28;20397;-67
2023/12/17 08:30:51;;;;;;;4.28;3.38;;;;;;;;;;5036049;28;20079;-67
2023/12/17 08:33:16;;;;;;;6.03;3.88;;;;;;;;;;5036548;28;20530;-67
2023/12/17 08:35:44;;;;;;;6.30;3.50;;;;;;;;;;5037605;28;20048;-67
2023/12/17 08:38:10;;;;;;;6.38;3.38;;;;;;;;;;5040296;28;20176;-67
2023/12/17 08:40:37;;;;;;;4.15;3.17;;;;;;;;;;5040022;28;20139;-67
2023/12/17 08:43:04;;;;;;;5.72;3.22;;;;;;;;;;5040331;28;20119;-67
2023/12/17 08:45:30;;;;;;;3.50;2.88;;;;;;;;;;5039346;28;20041;-68
2023/12/17 08:47:56;;;;;;;4.47;3.10;;;;;;;;;;5039208;28;20110;-67
2023/12/17 08:50:22;;;;;;;3.10;2.80;;;;;;;;;;5040470;28;20045;-67
2023/12/17 08:52:47;;;;;;;4.15;2.83;;;;;;;;;;5040021;28;20095;-67
2023/12/17 08:55:13;;;;;;;6.13;2.88;;;;;;;;;;5039844;28;20418;-67
2023/12/17 08:57:38;;;;;;;4.30;3.33;;;;;;;;;;5038567;28;20609;-67
2023/12/17 09:00:05;;;;;;;3.38;2.70;;;;;;;;;;5039661;28;20052;-67
2023/12/17 09:02:31;;;;;;;5.18;3.40;;;;;;;;;;5040193;28;20195;-69
2023/12/17 09:04:57;;;;;;;5.15;3.67;;;;;;;;;;5039488;28;21555;-68
2023/12/17 09:07:23;;;;;;;4.65;3.55;;;;;;;;;;5040024;28;20052;-68
2023/12/17 09:09:49;;;;;;;4.38;3.30;;;;;;;;;;5038071;28;20056;-68
2023/12/17 09:12:14;;;;;;;5.10;3.70;;;;;;;;;;5039321;28;20045;-68
2023/12/17 09:14:39;;;;;;;3.40;3.10;;;;;;;;;;5038833;28;20526;-67
2023/12/17 09:17:05;;;;;;;5.40;3.78;;;;;;;;;;5037974;28;20045;-67
2023/12/17 09:19:30;;;;;;;3.33;2.72;;;;;;;;;;5036675;28;20542;-68
2023/12/17 09:21:56;;;;;;;4.10;3.10;;;;;;;;;;5039046;28;20504;-67
2023/12/17 09:24:21;;;;;;;3.22;2.70;;;;;;;;;;5039256;28;20072;-66
2023/12/17 09:26:47;;;;;;;3.20;2.45;;;;;;;;;;5038848;28;20049;-67
2023/12/17 09:29:12;;;;;;;3.75;2.63;;;;;;;;;;5039173;28;20056;-67
2023/12/17 09:31:39;;;;;;;3.00;2.30;;;;;;;;;;5037997;28;20474;-68
2023/12/17 09:34:06;;;;;;;4.65;2.60;;;;;;;;;;5039052;28;20041;-67
2023/12/17 09:36:31;;;;;;;3.88;2.63;;;;;;;;;;5039359;28;20049;-67
2023/12/17 09:38:56;;;;;;;3.50;2.60;;;;;;;;;;5038725;28;20047;-66
2023/12/17 09:41:23;;;;;;;3.15;2.63;;;;;;;;;;5038437;28;20045;-69
2023/12/17 09:43:49;;;;;;;2.83;2.42;;;;;;;;;;5037203;28;20057;-69
2023/12/17 09:46:15;;;;;;;3.03;2.30;;;;;;;;;;5038046;28;20056;-69
2023/12/17 09:48:41;;;;;;;5.30;2.40;;;;;;;;;;5038115;28;20075;-69
2023/12/17 09:51:07;;;;;;;2.85;2.10;;;;;;;;;;5038715;28;20067;-68
2023/12/17 09:53:34;;;;;;;3.10;2.10;;;;;;;;;;5032391;28;20044;-69
2023/12/17 09:56:00;;;;;;;2.75;2.35;;;;;;;;;;5018485;28;20053;-69
2023/12/17 09:58:29;;;;;;;5.40;3.38;;;;;;;;;;5019724;28;20049;-68
2023/12/17 10:00:54;;;;;;;4.70;3.00;;;;;;;;;;5019550;28;20037;-69
2023/12/17 10:03:20;;;;;;;3.65;2.60;;;;;;;;;;5018553;28;20677;-68
2023/12/17 10:05:53;;;;;;;2.33;1.92;;;;;;;;;;5018274;28;20072;-69
2023/12/17 10:08:19;;;;;;;1.58;1.48;;;;;;;;;;5024898;28;20051;-69
2023/12/17 10:10:45;;;;;;;4.15;1.70;;;;;;;;;;5019263;28;20049;-69
2023/12/17 10:13:18;;;;;;;1.63;1.52;;;;;;;;;;5018121;28;20045;-69
2023/12/17 10:15:48;;;;;;;1.83;1.67;;;;;;;;;;5019877;28;20052;-69
2023/12/17 10:18:15;;;;;;;1.80;1.65;;;;;;;;;;5018497;28;20041;-69
2023/12/17 10:20:40;;;;;;;1.70;1.60;;;;;;;;;;5020091;28;20531;-67
2023/12/17 10:23:05;;;;;;;2.75;1.60;;;;;;;;;;5019854;28;20054;-67
2023/12/17 10:25:31;;;;;;;2.25;1.73;;;;;;;;;;5018535;28;20064;-68
2023/12/17 10:27:58;;;;;;;6.35;1.80;;;;;;;;;;5025158;28;20079;-67
2023/12/17 10:30:29;;;;;;;2.15;1.63;;;;;;;;;;5042813;28;20466;-67
2023/12/17 10:32:55;;;;;;;1.63;1.20;;;;;;;;;;5048830;28;20037;-67
2023/12/17 10:35:25;;;;;;;2.15;1.60;;;;;;;;;;5041928;28;20052;-67
2023/12/17 10:38:02;;;;;;;3.30;1.65;;;;;;;;;;5036574;28;20690;-67
2023/12/17 10:40:28;;;;;;;1.58;1.30;;;;;;;;;;5019548;28;20148;-67
2023/12/17 10:42:56;;;;;;;2.22;1.70;;;;;;;;;;5034156;28;20041;-67
2023/12/17 10:45:22;;;;;;;1.58;1.42;;;;;;;;;;5042109;28;20138;-67
2023/12/17 10:47:51;;;;;;;1.55;1.45;;;;;;;;;;5040101;28;20576;-67
2023/12/17 10:50:17;;;;;;;1.95;1.45;;;;;;;;;;5041317;28;20040;-67
2023/12/17 10:52:45;;;;;;;1.63;1.33;;;;;;;;;;5047961;28;20103;-67
2023/12/17 10:55:10;;;;;;;2.22;1.48;;;;;;;;;;5038567;28;20170;-67
2023/12/17 10:57:38;;;;;;;1.90;1.67;;;;;;;;;;5037185;28;20376;-67
2023/12/17 11:00:05;;;;;;;1.75;1.65;;;;;;;;;;5037974;28;20049;-69
2023/12/17 11:02:31;;;;;;;4.30;1.80;;;;;;;;;;5044358;28;20040;-67
2023/12/17 11:04:58;;;;;;;1.55;1.45;;;;;;;;;;5042857;28;20128;-67
2023/12/17 11:07:23;;;;;;;1.40;1.30;;;;;;;;;;5057003;28;20048;-69
2023/12/17 11:09:49;;;;;;;2.08;1.80;;;;;;;;;;5043554;28;20052;-67
2023/12/17 11:12:18;;;;;;;2.45;1.80;;;;;;;;;;5041629;28;20044;-69
2023/12/17 11:14:44;;;;;;;2.28;1.75;;;;;;;;;;5040070;28;20041;-67
2023/12/17 11:17:14;;;;;;;1.92;1.70;;;;;;;;;;5039762;28;20097;-69
2023/12/17 11:20:00;;;;;;;1.80;1.63;;;;;;;;;;5039667;28;20091;-67
2023/12/17 11:22:28;;;;;;;2.05;1.45;;;;;;;;;;5041221;28;20044;-67
2023/12/17 11:24:55;;;;;;;5.20;1.48;;;;;;;;;;5040387;28;20249;-67
2023/12/17 11:27:22;;;;;;;1.50;1.40;;;;;;;;;;5043982;28;20136;-69
2023/12/17 11:29:49;;;;;;;2.10;1.50;;;;;;;;;;5040796;28;20453;-69
2023/12/17 11:32:16;;;;;;;1.98;1.70;;;;;;;;;;5053304;28;20037;-69
2023/12/17 11:34:48;;;;;;;3.15;1.35;;;;;;;;;;5041383;28;20052;-69
2023/12/17 11:37:19;;;;;;;3.05;1.52;;;;;;;;;;5033782;28;20057;-69
2023/12/17 11:39:49;;;;;;;1.77;1.52;;;;;;;;;;5017884;28;20179;-67
2023/12/17 11:42:16;;;;;;;1.73;1.63;;;;;;;;;;5018193;28;20045;-69
2023/12/17 11:44:50;;;;;;;1.58;1.48;;;;;;;;;;5018216;28;20040;-69
2023/12/17 11:47:17;;;;;;;1.52;1.33;;;;;;;;;;5020043;28;20069;-69
2023/12/17 11:49:43;;;;;;;3.67;1.98;;;;;;;;;;5019107;28;20045;-70
2023/12/17 11:52:10;;;;;;;2.00;1.70;;;;;;;;;;5019566;28;20107;-70
2023/12/17 11:54:36;;;;;;;2.53;1.95;;;;;;;;;;5018513;28;20029;-70
2023/12/17 11:57:02;;;;;;;2.03;1.80;;;;;;;;;;5018542;28;20725;-70
2023/12/17 11:59:31;;;;;;;3.70;1.70;;;;;;;;;;5033817;28;20052;-70
2023/12/17 12:01:57;;;;;;;3.22;2.30;;;;;;;;;;5019104;28;20069;-70
2023/12/17 12:04:23;;;;;;;2.38;2.17;;;;;;;;;;5019287;28;20150;-70
2023/12/17 12:06:53;;;;;;;1.10;1.00;;;;;;;;;;5023350;28;20048;-70
2023/12/17 12:09:21;;;;;;;2.15;1.90;;;;;;;;;;5022079;28;20049;-70
2023/12/17 12:11:47;;;;;;;5.05;1.67;;;;;;;;;;5025437;28;20048;-70
2023/12/17 12:14:13;;;;;;;1.42;1.33;;;;;;;;;;5021235;28;20045;-69
2023/12/17 12:16:39;;;;;;;2.75;2.20;;;;;;;;;;5024820;28;20408;-69
2023/12/17 12:19:05;;;;;;;4.20;2.42;;;;;;;;;;5035731;28;20055;-69
2023/12/17 12:21:30;;;;;;;2.80;2.15;;;;;;;;;;5031164;28;20049;-69
2023/12/17 12:23:57;;;;;;;3.20;2.08;;;;;;;;;;5038599;28;20137;-69
2023/12/17 12:26:24;;;;;;;3.40;2.05;;;;;;;;;;5043136;28;20048;-69
2023/12/17 12:29:00;;;;;;;1.92;1.73;;;;;;;;;;5041963;28;20079;-69
2023/12/17 12:31:27;;;;;;;1.95;1.40;;;;;;;;;;5043293;28;20044;-72
2023/12/17 12:33:59;;;;;;;2.10;1.90;;;;;;;;;;5041238;28;20053;-69
2023/12/17 12:36:25;;;;;;;2.50;1.88;;;;;;;;;;5040773;28;20051;-69
2023/12/17 12:39:04;;;;;;;3.45;2.20;;;;;;;;;;5045375;28;20251;-69
2023/12/17 12:41:31;;;;;;;2.28;2.00;;;;;;;;;;5050799;28;20086;-69
2023/12/17 12:43:57;;;;;;;2.13;1.92;;;;;;;;;;5048555;28;20102;-69
2023/12/17 12:46:23;;;;;;;3.25;2.15;;;;;;;;;;5038211;28;20056;-69
2023/12/17 12:48:55;;;;;;;1.80;1.55;;;;;;;;;;5039037;28;20053;-69
2023/12/17 12:51:21;;;;;;;2.15;1.95;;;;;;;;;;5041735;28;20052;-69
2023/12/17 12:53:47;;;;;;;3.55;2.10;;;;;;;;;;5038529;28;20495;-69
2023/12/17 12:56:13;;;;;;;2.38;2.10;;;;;;;;;;5041237;28;20111;-69
2023/12/17 12:58:38;;;;;;;2.72;2.10;;;;;;;;;;5040610;28;20049;-69
2023/12/17 13:01:04;;;;;;;2.83;1.73;;;;;;;;;;5039054;28;20052;-69
2023/12/17 13:03:29;;;;;;;2.45;1.80;;;;;;;;;;5040490;28;20115;-69
2023/12/17 13:05:55;;;;;;;2.45;1.80;;;;;;;;;;5038823;28;20044;-69
2023/12/17 13:08:20;;;;;;;2.80;2.13;;;;;;;;;;5037990;28;20114;-69
2023/12/17 13:10:46;;;;;;;2.55;2.08;;;;;;;;;;5037115;28;20056;-69
2023/12/17 13:13:12;;;;;;;5.22;1.92;;;;;;;;;;5041070;28;20051;-69
2023/12/17 13:15:37;;;;;;;2.38;1.73;;;;;;;;;;5038353;28;20062;-69
2023/12/17 13:18:03;;;;;;;2.45;1.77;;;;;;;;;;5053183;28;20060;-68
2023/12/17 13:20:28;;;;;;;2.67;1.70;;;;;;;;;;5046221;28;20033;-68
2023/12/17 13:22:55;;;;;;;4.50;1.88;;;;;;;;;;5056089;28;20136;-68
2023/12/17 13:25:21;;;;;;;2.92;1.67;;;;;;;;;;5055020;28;20064;-69
2023/12/17 13:27:46;;;;;;;1.80;1.70;;;;;;;;;;5055196;28;28756;-68
2023/12/17 13:30:12;;;;;;;3.65;1.90;;;;;;;;;;5056835;28;20059;-68
2023/12/17 13:32:38;;;;;;;2.83;1.63;;;;;;;;;;5054927;28;20683;-67
2023/12/17 13:35:04;;;;;;;1.98;1.77;;;;;;;;;;5055456;28;20106;-67
2023/12/17 13:37:30;;;;;;;1.55;1.45;;;;;;;;;;5052599;28;20131;-67
2023/12/17 13:39:55;;;;;;;3.40;1.98;;;;;;;;;;5055658;28;20491;-67
2023/12/17 13:42:21;;;;;;;2.40;1.83;;;;;;;;;;5056381;28;20235;-66
2023/12/17 13:44:46;;;;;;;2.38;1.77;;;;;;;;;;5055038;28;20539;-67
2023/12/17 13:47:12;;;;;;;3.00;1.98;;;;;;;;;;5056362;28;20407;-68
2023/12/17 13:49:37;;;;;;;2.60;1.60;;;;;;;;;;5055613;28;20045;-67
2023/12/17 13:52:04;;;;;;;1.80;1.70;;;;;;;;;;5055486;28;20402;-66
2023/12/17 13:54:29;;;;;;;2.88;2.10;;;;;;;;;;5055514;28;20048;-66
2023/12/17 13:56:55;;;;;;;3.78;2.28;;;;;;;;;;5056832;28;20040;-66
2023/12/17 13:59:21;;;;;;;1.73;1.63;;;;;;;;;;5055944;28;20465;-68
2023/12/17 14:01:49;;;;;;;3.13;2.08;;;;;;;;;;5055491;28;20496;-68
2023/12/17 14:04:14;;;;;;;1.92;1.58;;;;;;;;;;5056347;28;20147;-68
2023/12/17 14:06:40;;;;;;;2.50;1.60;;;;;;;;;;5056128;28;20048;-66
2023/12/17 14:09:05;;;;;;;1.67;1.58;;;;;;;;;;5056449;28;20121;-66
2023/12/17 14:11:30;;;;;;;2.22;1.80;;;;;;;;;;5057013;28;20044;-69
2023/12/17 14:13:56;;;;;;;1.80;1.70;;;;;;;;;;5056304;28;20072;-67
2023/12/17 14:16:27;;;;;;;3.58;1.88;;;;;;;;;;5055822;28;20067;-66
2023/12/17 14:18:53;;;;;;;2.13;1.92;;;;;;;;;;5056389;28;20036;-67
2023/12/17 14:21:18;;;;;;;3.72;1.98;;;;;;;;;;5056512;28;20052;-66
2023/12/17 14:23:45;;;;;;;2.28;1.77;;;;;;;;;;5055310;28;20037;-67
2023/12/17 14:26:11;;;;;;;2.28;1.80;;;;;;;;;;5055910;28;20044;-69
2023/12/17 14:28:36;;;;;;;5.28;1.83;;;;;;;;;;5056730;28;20048;-67
2023/12/17 14:31:02;;;;;;;2.83;1.70;;;;;;;;;;5056223;28;20120;-66
2023/12/17 14:33:28;;;;;;;2.05;1.80;;;;;;;;;;5056128;28;20709;-67